createdAt,value
2022-08-23T00:00:00.206Z,201.97
2022-08-23T00:04:10.323Z,198.97
2022-08-23T00:08:14.887Z,271.23
2022-08-23T00:12:20.953Z,207.37
2022-08-23T00:16:24.370Z,262.53
2022-08-23T00:20:29.011Z,249.27
2022-08-23T00:24:32.487Z,252.23
2022-08-23T00:28:41.354Z,244.60
2022-08-23T00:32:45.696Z,239.83
2022-08-23T00:36:50.617Z,209.07
2022-08-23T00:40:55.000Z,265.87
2022-08-23T00:45:19.774Z,223.57
2022-08-23T00:49:23.718Z,244.07
2022-08-23T00:53:32.685Z,237.47
2022-08-23T00:57:37.432Z,313.27
2022-08-23T01:01:41.746Z,328.63
2022-08-23T01:05:52.340Z,276.47
2022-08-23T01:10:03.367Z,331.53
2022-08-23T01:14:16.673Z,319.70
2022-08-23T01:18:23.390Z,307.10
2022-08-23T01:22:34.389Z,303.60
2022-08-23T01:26:39.267Z,301.53
2022-08-23T01:30:46.430Z,326.77
2022-08-23T01:34:51.663Z,320.67
2022-08-23T01:38:55.142Z,313.37
2022-08-23T01:43:00.013Z,301.57
2022-08-23T01:47:03.600Z,343.87
2022-08-23T01:51:06.890Z,337.50
2022-08-23T01:55:10.311Z,331.40
2022-08-23T01:59:15.903Z,335.20
2022-08-23T02:03:19.687Z,371.10
2022-08-23T02:07:27.599Z,369.90
2022-08-23T02:11:34.554Z,302.07
2022-08-23T02:15:40.014Z,308.23
2022-08-23T02:19:44.640Z,330.50
2022-08-23T02:23:48.976Z,330.93
2022-08-23T02:27:52.193Z,318.33
2022-08-23T02:31:57.040Z,333.83
2022-08-23T02:36:00.338Z,337.60
2022-08-23T02:40:04.197Z,305.03
2022-08-23T02:44:07.524Z,305.57
2022-08-23T02:48:12.290Z,336.57
2022-08-23T02:52:15.574Z,350.20
2022-08-23T02:56:21.811Z,346.10
2022-08-23T03:00:25.386Z,318.63
2022-08-23T03:04:30.260Z,321.03
2022-08-23T03:08:33.536Z,358.00
2022-08-23T03:12:37.016Z,330.07
2022-08-23T03:16:40.698Z,346.37
2022-08-23T03:20:45.548Z,305.43
2022-08-23T03:24:48.805Z,300.97
2022-08-23T03:28:52.278Z,364.83
2022-08-23T03:32:57.062Z,308.67
2022-08-23T03:37:01.929Z,339.40
2022-08-23T03:41:05.539Z,311.87
2022-08-23T03:45:11.081Z,325.17
2022-08-23T03:49:14.397Z,291.57
2022-08-23T03:53:19.068Z,333.73
2022-08-23T03:57:22.284Z,350.03
2022-08-23T04:01:28.652Z,320.47
2022-08-23T04:05:32.246Z,322.80
2022-08-23T04:09:36.960Z,347.23
2022-08-23T04:13:41.003Z,335.80
2022-08-23T04:17:44.309Z,316.90
2022-08-23T04:21:52.342Z,335.80
2022-08-23T04:25:56.992Z,316.20
2022-08-23T04:30:02.156Z,369.40
2022-08-23T04:34:05.461Z,319.40
2022-08-23T04:38:18.262Z,298.03
2022-08-23T04:42:30.142Z,329.23
2022-08-23T04:46:33.491Z,279.90
2022-08-23T04:50:37.341Z,263.43
2022-08-23T04:54:40.569Z,293.53
2022-08-23T04:58:45.540Z,300.10
2022-08-23T05:02:49.047Z,262.17
2022-08-23T05:06:52.483Z,279.30
2022-08-23T05:10:57.169Z,292.67
2022-08-23T05:15:03.370Z,289.20
2022-08-23T05:19:07.039Z,373.23
2022-08-23T05:23:10.682Z,295.33
2022-08-23T05:27:13.955Z,302.03
2022-08-23T05:31:21.140Z,290.50
2022-08-23T05:35:24.506Z,288.03
2022-08-23T05:39:32.734Z,294.53
2022-08-23T05:43:41.062Z,292.63
2022-08-23T05:47:46.437Z,277.37
2022-08-23T05:51:54.365Z,278.83
2022-08-23T05:55:57.704Z,332.43
2022-08-23T06:00:00.902Z,292.30
2022-08-23T06:04:08.244Z,300.77
2022-08-23T06:08:11.486Z,311.27
2022-08-23T06:12:15.095Z,262.73
2022-08-23T06:16:20.414Z,299.13
2022-08-23T06:20:25.152Z,251.87
2022-08-23T06:24:28.546Z,273.10
2022-08-23T06:28:32.352Z,253.73
2022-08-23T06:32:36.249Z,248.27
2022-08-23T06:36:41.227Z,232.55
2022-08-23T06:40:45.014Z,233.80
2022-08-23T06:44:48.265Z,231.10
2022-08-23T06:48:53.267Z,206.90
2022-08-23T06:52:57.927Z,165.37
2022-08-23T06:57:01.974Z,209.30
2022-08-23T07:01:28.842Z,212.70
2022-08-23T07:05:36.998Z,189.57
2022-08-23T07:09:42.543Z,164.90
2022-08-23T07:13:46.168Z,143.37
2022-08-23T07:17:49.361Z,142.90
2022-08-23T07:21:52.602Z,144.20
2022-08-23T07:25:57.666Z,148.40
2022-08-23T07:30:00.932Z,158.57
2022-08-23T07:34:06.387Z,178.13
2022-08-23T07:38:09.640Z,111.47
2022-08-23T07:42:23.735Z,84.00
2022-08-23T07:46:28.251Z,66.23
2022-08-23T07:50:31.767Z,63.13
2022-08-23T07:54:35.023Z,51.23
2022-08-23T07:58:40.150Z,67.40
2022-08-23T08:02:43.444Z,29.23
2022-08-23T08:07:04.890Z,16.67
2022-08-23T08:11:16.494Z,7.00
2022-08-23T08:15:23.223Z,6.10
2022-08-23T08:19:26.569Z,5.67
2022-08-23T08:23:30.262Z,5.10
2022-08-23T08:27:35.156Z,6.20
2022-08-23T08:31:41.782Z,4.80
2022-08-23T08:35:48.136Z,5.07
2022-08-23T08:40:02.311Z,6.33
2022-08-23T08:44:15.789Z,4.90
2022-08-23T08:48:25.249Z,5.10
2022-08-23T08:52:32.552Z,14.50
2022-08-23T08:56:39.286Z,4.90
2022-08-23T09:00:43.040Z,5.27
2022-08-23T09:04:48.287Z,4.90
2022-08-23T09:09:05.394Z,5.77
2022-08-23T09:13:27.455Z,4.83
2022-08-23T09:17:39.675Z,6.03
2022-08-23T09:21:48.109Z,5.00
2022-08-23T09:25:56.369Z,4.80
2022-08-23T09:30:03.675Z,4.60
2022-08-23T09:34:07.539Z,5.13
2022-08-23T09:38:21.479Z,4.20
2022-08-23T09:42:30.937Z,4.47
2022-08-23T09:46:42.137Z,4.30
2022-08-23T09:50:50.555Z,4.50
2022-08-23T09:55:02.877Z,4.43
2022-08-23T09:59:26.535Z,4.37
2022-08-23T10:03:31.292Z,4.27
2022-08-23T10:07:42.349Z,4.37
2022-08-23T10:11:47.591Z,5.77
2022-08-23T10:16:00.641Z,4.40
2022-08-23T10:20:18.236Z,4.80
2022-08-23T10:24:31.341Z,4.47
2022-08-23T10:29:04.923Z,4.30
2022-08-23T10:33:16.940Z,5.07
2022-08-23T10:37:44.098Z,4.97
2022-08-23T10:41:57.839Z,6.87
2022-08-23T10:46:04.714Z,11.30
2022-08-23T10:50:10.041Z,5.40
2022-08-23T10:54:24.166Z,5.10
2022-08-23T10:58:37.084Z,5.53
2022-08-23T11:02:50.780Z,5.23
2022-08-23T11:06:56.889Z,5.20
2022-08-23T11:11:00.258Z,5.73
2022-08-23T11:15:26.349Z,5.83
2022-08-23T11:19:52.731Z,5.47
2022-08-23T11:24:18.476Z,5.60
2022-08-23T11:28:48.548Z,5.53
2022-08-23T11:32:52.105Z,5.67
2022-08-23T11:37:28.548Z,5.57
2022-08-23T11:41:34.444Z,5.30
2022-08-23T11:45:46.475Z,6.37
2022-08-23T11:50:14.702Z,7.20
2022-08-23T11:54:33.893Z,5.87
2022-08-23T11:59:08.817Z,5.30
2022-08-23T12:03:27.109Z,6.97
2022-08-23T12:07:48.608Z,6.53
2022-08-23T12:12:25.360Z,5.80
2022-08-23T12:16:36.376Z,6.37
2022-08-23T12:20:41.905Z,4.93
2022-08-23T12:24:53.525Z,5.00
2022-08-23T12:29:05.843Z,6.60
2022-08-23T12:33:19.948Z,5.70
2022-08-23T12:37:34.660Z,5.60
2022-08-23T12:41:55.803Z,5.00
2022-08-23T12:46:03.802Z,6.13
2022-08-23T12:50:10.760Z,5.00
2022-08-23T12:54:17.033Z,5.30
2022-08-23T12:58:33.637Z,5.10
2022-08-23T13:02:39.865Z,5.17
2022-08-23T13:06:46.177Z,5.27
2022-08-23T13:10:49.990Z,5.20
2022-08-23T13:14:55.465Z,5.00
2022-08-23T13:19:17.852Z,5.60
2022-08-23T13:23:30.153Z,5.40
2022-08-23T13:27:38.562Z,5.03
2022-08-23T13:32:03.268Z,5.30
2022-08-23T13:36:14.329Z,5.00
2022-08-23T13:40:22.805Z,4.80
2022-08-23T13:44:28.153Z,7.57
2022-08-23T13:48:34.914Z,6.63
2022-08-23T13:53:03.157Z,5.73
2022-08-23T13:57:07.599Z,5.30
2022-08-23T14:01:19.373Z,5.60
2022-08-23T14:05:25.343Z,8.03
2022-08-23T14:09:30.703Z,5.03
2022-08-23T14:13:37.068Z,5.00
2022-08-23T14:17:43.917Z,5.23
2022-08-23T14:21:47.965Z,7.70
2022-08-23T14:25:56.847Z,5.30
2022-08-23T14:30:00.261Z,5.43
2022-08-23T14:34:04.446Z,5.50
2022-08-23T14:38:10.307Z,7.80
2022-08-23T14:42:18.180Z,6.83
2022-08-23T14:46:25.588Z,5.30
2022-08-23T14:50:29.307Z,5.60
2022-08-23T14:54:34.617Z,5.47
2022-08-23T14:58:43.853Z,5.90
2022-08-23T15:02:50.207Z,6.27
2022-08-23T15:07:17.310Z,5.80
2022-08-23T15:15:49.928Z,6.37
2022-08-23T15:19:54.968Z,5.50
2022-08-23T15:23:59.085Z,5.63
2022-08-23T15:28:07.569Z,8.00
2022-08-23T15:32:15.462Z,6.20
2022-08-23T15:36:26.327Z,5.90
2022-08-23T15:40:29.820Z,7.80
2022-08-23T15:44:33.229Z,6.17
2022-08-23T15:49:04.641Z,6.30
2022-08-23T15:53:07.902Z,6.13
2022-08-23T15:57:16.700Z,7.60
2022-08-23T16:01:24.650Z,6.20
2022-08-23T16:05:29.669Z,8.90
2022-08-23T16:09:34.955Z,6.30
2022-08-23T16:13:40.836Z,6.90
2022-08-23T16:17:44.092Z,6.20
2022-08-23T16:21:48.730Z,6.97
2022-08-23T16:25:55.931Z,5.63
2022-08-23T16:30:02.663Z,8.07
2022-08-23T16:34:08.103Z,6.97
2022-08-23T16:38:12.744Z,6.53
2022-08-23T16:42:15.988Z,6.83
2022-08-23T16:46:21.114Z,8.50
2022-08-23T16:50:24.632Z,7.73
2022-08-23T16:54:29.726Z,5.77
2022-08-23T16:58:33.106Z,7.87
2022-08-23T17:02:39.421Z,8.07
2022-08-23T17:06:43.052Z,6.50
2022-08-23T17:10:49.939Z,11.40
2022-08-23T17:14:55.413Z,7.07
2022-08-23T17:19:32.711Z,6.10
2022-08-23T17:23:45.193Z,5.63
2022-08-23T17:27:58.637Z,12.60
2022-08-23T17:32:21.124Z,5.37
2022-08-23T17:36:33.881Z,5.93
2022-08-23T17:40:40.691Z,5.80
2022-08-23T17:44:45.874Z,5.23
2022-08-23T17:48:49.667Z,5.53
2022-08-23T17:52:53.437Z,5.10
2022-08-23T17:57:07.112Z,5.20
2022-08-23T18:01:32.798Z,5.47
2022-08-23T18:06:16.886Z,6.93
2022-08-23T18:10:50.809Z,5.83
2022-08-23T18:15:15.391Z,5.67
2022-08-23T18:19:50.141Z,5.70
2022-08-23T18:24:00.752Z,5.80
2022-08-23T18:28:12.645Z,8.47
2022-08-23T18:32:17.971Z,5.80
2022-08-23T18:36:25.017Z,7.60
2022-08-23T18:40:32.922Z,6.47
2022-08-23T18:44:38.699Z,6.40
2022-08-23T18:48:53.261Z,7.47
2022-08-23T18:53:02.206Z,7.00
2022-08-23T18:57:08.193Z,7.40
2022-08-23T19:01:56.059Z,8.83
2022-08-23T19:06:40.678Z,9.97
2022-08-23T19:10:48.235Z,8.27
2022-08-23T19:14:55.964Z,8.97
2022-08-23T19:19:01.423Z,8.97
2022-08-23T19:23:06.194Z,13.13
2022-08-23T19:27:12.732Z,11.33
2022-08-23T19:31:17.785Z,12.33
2022-08-23T19:35:22.443Z,10.80
2022-08-23T19:39:27.599Z,10.53
2022-08-23T19:43:33.380Z,12.67
2022-08-23T19:47:37.955Z,16.20
2022-08-23T19:51:44.957Z,12.53
2022-08-23T19:55:49.445Z,13.87
2022-08-23T20:00:01.910Z,13.57
2022-08-23T20:04:07.145Z,12.57
2022-08-23T20:08:11.495Z,13.17
2022-08-23T20:12:16.113Z,13.63
2022-08-23T20:16:43.069Z,10.67
2022-08-23T20:20:53.890Z,15.47
2022-08-23T20:24:58.718Z,12.73
2022-08-23T20:29:06.691Z,16.83
2022-08-23T20:33:11.794Z,18.80
2022-08-23T20:37:15.096Z,19.70
2022-08-23T20:41:18.390Z,25.03
2022-08-23T20:45:21.608Z,29.57
2022-08-23T20:49:27.602Z,26.63
2022-08-23T20:53:31.054Z,28.70
2022-08-23T20:57:37.945Z,27.27
2022-08-23T21:01:42.369Z,35.13
2022-08-23T21:05:47.449Z,28.43
2022-08-23T21:09:51.793Z,36.50
2022-08-23T21:13:55.492Z,40.17
2022-08-23T21:17:58.767Z,29.37
2022-08-23T21:22:03.362Z,35.83
2022-08-23T21:26:07.821Z,38.87
2022-08-23T21:30:12.578Z,71.23
2022-08-23T21:34:15.795Z,60.80
2022-08-23T21:38:20.596Z,67.93
2022-08-23T21:42:26.131Z,102.60
2022-08-23T21:46:29.478Z,90.97
2022-08-23T21:50:33.334Z,78.53
2022-08-23T21:54:42.854Z,97.77
2022-08-23T21:58:46.947Z,95.20
2022-08-23T22:02:55.588Z,97.20
2022-08-23T22:07:00.088Z,112.70
2022-08-23T22:11:08.418Z,93.13
2022-08-23T22:15:13.105Z,103.80
2022-08-23T22:19:17.010Z,102.10
2022-08-23T22:23:20.320Z,90.33
2022-08-23T22:27:24.956Z,89.63
2022-08-23T22:31:28.749Z,130.13
2022-08-23T22:35:35.201Z,99.50
2022-08-23T22:39:39.835Z,127.87
2022-08-23T22:43:44.396Z,117.73
2022-08-23T22:47:47.645Z,113.97
2022-08-23T22:51:55.035Z,121.37
2022-08-23T22:55:58.623Z,119.20
2022-08-23T23:00:03.345Z,143.43
2022-08-23T23:04:09.319Z,139.17
2022-08-23T23:08:30.909Z,119.80
2022-08-23T23:12:34.210Z,127.77
2022-08-23T23:16:39.510Z,132.57
2022-08-23T23:20:42.868Z,140.03
2022-08-23T23:24:46.175Z,149.83
2022-08-23T23:28:49.357Z,144.67
2022-08-23T23:32:54.021Z,140.40
2022-08-23T23:36:57.605Z,114.03
2022-08-23T23:41:00.782Z,175.03
2022-08-23T23:45:04.579Z,109.93
2022-08-23T23:49:09.229Z,154.57
2022-08-23T23:53:12.450Z,130.30
2022-08-23T23:57:15.770Z,142.67
